createdAt,value
2018-11-07T00:00:42.253Z,6.30
2018-11-07T00:03:10.464Z,6.30
2018-11-07T00:05:38.662Z,6.30
2018-11-07T00:08:07.237Z,6.30
2018-11-07T00:10:35.348Z,6.40
2018-11-07T00:13:03.573Z,6.40
2018-11-07T00:15:31.758Z,6.50
2018-11-07T00:18:00.026Z,6.50
2018-11-07T00:20:28.201Z,6.60
2018-11-07T00:23:02.704Z,6.60
2018-11-07T00:25:30.935Z,6.60
2018-11-07T00:27:59.232Z,6.60
2018-11-07T00:30:27.497Z,6.60
2018-11-07T00:32:55.683Z,6.70
2018-11-07T00:35:23.908Z,6.70
2018-11-07T00:37:52.116Z,6.70
2018-11-07T00:40:20.523Z,6.70
2018-11-07T00:42:48.772Z,6.70
2018-11-07T00:45:16.986Z,6.70
2018-11-07T00:47:45.244Z,6.50
2018-11-07T00:50:15.973Z,6.40
2018-11-07T00:52:44.712Z,6.30
2018-11-07T00:55:13.637Z,6.20
2018-11-07T00:57:42.080Z,6.30
2018-11-07T01:00:12.813Z,6.10
2018-11-07T01:02:41.027Z,6.10
2018-11-07T01:05:10.811Z,6.00
2018-11-07T01:07:39.057Z,6.00
2018-11-07T01:10:08.019Z,5.90
2018-11-07T01:12:36.264Z,5.90
2018-11-07T01:15:04.768Z,5.70
2018-11-07T01:17:33.025Z,5.70
2018-11-07T01:20:01.283Z,5.60
2018-11-07T01:22:30.164Z,5.50
2018-11-07T01:24:58.644Z,5.50
2018-11-07T01:27:26.854Z,5.50
2018-11-07T01:29:55.041Z,5.40
2018-11-07T01:32:23.316Z,5.40
2018-11-07T01:34:51.718Z,5.40
2018-11-07T01:37:19.920Z,5.40
2018-11-07T01:39:48.166Z,5.30
2018-11-07T01:42:16.448Z,5.20
2018-11-07T01:44:44.681Z,5.20
2018-11-07T01:47:12.944Z,5.20
2018-11-07T01:49:41.138Z,5.10
2018-11-07T01:52:09.329Z,5.10
2018-11-07T01:54:37.580Z,5.20
2018-11-07T01:57:06.032Z,5.10
2018-11-07T01:59:34.307Z,5.10
2018-11-07T02:02:02.551Z,5.10
2018-11-07T02:04:30.820Z,5.00
2018-11-07T02:06:59.138Z,5.00
2018-11-07T02:09:27.411Z,5.00
2018-11-07T02:11:55.630Z,4.90
2018-11-07T02:14:23.857Z,4.80
2018-11-07T02:16:52.117Z,4.80
2018-11-07T02:19:20.327Z,4.70
2018-11-07T02:21:48.496Z,4.70
2018-11-07T02:24:16.697Z,4.70
2018-11-07T02:26:44.934Z,4.70
2018-11-07T02:29:13.733Z,4.70
2018-11-07T02:31:43.341Z,4.70
2018-11-07T02:34:11.823Z,4.70
2018-11-07T02:36:40.239Z,4.80
2018-11-07T02:39:10.336Z,4.70
2018-11-07T02:41:38.697Z,4.80
2018-11-07T02:44:06.881Z,4.80
2018-11-07T02:46:35.153Z,4.80
2018-11-07T02:49:03.641Z,4.90
2018-11-07T02:51:31.969Z,4.90
2018-11-07T02:54:00.822Z,5.00
2018-11-07T02:56:29.419Z,5.10
2018-11-07T02:58:58.280Z,5.10
2018-11-07T03:01:26.932Z,5.20
2018-11-07T03:03:55.044Z,5.20
2018-11-07T03:06:23.245Z,5.30
2018-11-07T03:08:51.422Z,5.40
2018-11-07T03:11:19.618Z,5.50
2018-11-07T03:13:47.886Z,5.50
2018-11-07T03:16:16.109Z,5.60
2018-11-07T03:18:44.284Z,5.50
2018-11-07T03:21:12.590Z,5.50
2018-11-07T03:23:40.899Z,5.50
2018-11-07T03:26:09.218Z,5.50
2018-11-07T03:28:37.392Z,5.60
2018-11-07T03:31:05.676Z,5.50
2018-11-07T03:33:33.874Z,5.60
2018-11-07T03:36:02.093Z,5.60
2018-11-07T03:38:30.337Z,5.60
2018-11-07T03:40:58.545Z,5.70
2018-11-07T03:43:26.735Z,5.70
2018-11-07T03:45:58.936Z,5.70
2018-11-07T03:48:28.439Z,5.70
2018-11-07T03:50:56.814Z,5.70
2018-11-07T03:53:25.219Z,5.60
2018-11-07T03:55:53.409Z,5.60
2018-11-07T03:58:21.657Z,5.50
2018-11-07T04:00:49.940Z,5.50
2018-11-07T04:03:18.338Z,5.40
2018-11-07T04:05:46.578Z,5.40
2018-11-07T04:08:14.765Z,5.40
2018-11-07T04:10:42.952Z,5.40
2018-11-07T04:13:11.219Z,5.50
2018-11-07T04:15:39.405Z,5.40
2018-11-07T04:18:07.591Z,5.50
2018-11-07T04:20:35.757Z,5.40
2018-11-07T04:23:04.216Z,5.30
2018-11-07T04:25:32.460Z,5.30
2018-11-07T04:28:00.665Z,5.20
2018-11-07T04:30:28.904Z,5.20
2018-11-07T04:32:57.237Z,5.10
2018-11-07T04:35:25.483Z,5.20
2018-11-07T04:37:53.759Z,5.10
2018-11-07T04:40:21.996Z,5.30
2018-11-07T04:42:50.208Z,5.20
2018-11-07T04:45:18.399Z,5.20
2018-11-07T04:47:46.611Z,5.00
2018-11-07T04:50:14.836Z,5.00
2018-11-07T04:52:43.005Z,4.90
2018-11-07T04:55:11.178Z,4.90
2018-11-07T04:57:39.405Z,4.90
2018-11-07T05:00:09.386Z,5.00
2018-11-07T05:02:37.507Z,4.90
2018-11-07T05:05:05.821Z,4.70
2018-11-07T05:07:34.058Z,4.70
2018-11-07T05:10:02.263Z,4.60
2018-11-07T05:12:30.451Z,4.60
2018-11-07T05:14:58.698Z,4.50
2018-11-07T05:17:26.957Z,4.50
2018-11-07T05:19:55.233Z,4.50
2018-11-07T05:22:23.388Z,4.40
2018-11-07T05:24:51.576Z,4.40
2018-11-07T05:27:19.898Z,4.50
2018-11-07T05:29:48.124Z,4.60
2018-11-07T05:32:16.347Z,4.50
2018-11-07T05:34:44.501Z,4.40
2018-11-07T05:37:12.681Z,4.50
2018-11-07T05:39:40.892Z,4.50
2018-11-07T05:42:09.141Z,4.40
2018-11-07T05:44:37.347Z,4.40
2018-11-07T05:47:05.681Z,4.40
2018-11-07T05:49:33.858Z,4.30
2018-11-07T05:52:02.066Z,4.20
2018-11-07T05:54:30.346Z,4.10
2018-11-07T05:56:58.536Z,4.10
2018-11-07T05:59:27.611Z,4.20
2018-11-07T06:01:55.829Z,4.10
2018-11-07T06:04:23.995Z,4.10
2018-11-07T06:06:52.158Z,3.90
2018-11-07T06:09:20.324Z,3.90
2018-11-07T06:11:48.529Z,4.10
2018-11-07T06:14:16.722Z,4.00
2018-11-07T06:16:45.022Z,4.00
2018-11-07T06:19:13.330Z,4.00
2018-11-07T06:21:41.778Z,3.90
2018-11-07T06:24:10.020Z,4.10
2018-11-07T06:26:38.128Z,4.00
2018-11-07T06:29:06.389Z,4.00
2018-11-07T06:31:34.952Z,4.00
2018-11-07T06:34:03.258Z,3.90
2018-11-07T06:36:31.400Z,3.80
2018-11-07T06:38:59.597Z,3.90
2018-11-07T06:41:27.846Z,3.90
2018-11-07T06:43:56.063Z,3.90
2018-11-07T06:46:24.251Z,3.80
2018-11-07T06:48:52.428Z,3.80
2018-11-07T06:51:20.588Z,3.70
2018-11-07T06:53:48.786Z,3.80
2018-11-07T06:56:17.010Z,3.90
2018-11-07T06:58:45.263Z,3.90
2018-11-07T07:01:13.790Z,4.00
2018-11-07T07:03:41.917Z,4.00
2018-11-07T07:06:10.144Z,4.00
2018-11-07T07:08:38.382Z,4.00
2018-11-07T07:11:06.868Z,4.10
2018-11-07T07:13:35.502Z,4.00
2018-11-07T07:16:03.685Z,4.10
2018-11-07T07:18:31.878Z,4.20
2018-11-07T07:21:00.080Z,4.30
2018-11-07T07:23:28.381Z,4.70
2018-11-07T07:25:56.613Z,4.80
2018-11-07T07:28:24.873Z,4.80
2018-11-07T07:30:53.048Z,5.20
2018-11-07T07:33:21.306Z,5.30
2018-11-07T07:35:49.645Z,5.50
2018-11-07T07:38:17.990Z,5.80
2018-11-07T07:40:46.204Z,6.00
2018-11-07T07:43:14.373Z,6.80
2018-11-07T07:45:42.700Z,8.10
2018-11-07T07:48:10.911Z,9.30
2018-11-07T07:50:39.123Z,9.90
2018-11-07T07:53:07.394Z,10.70
2018-11-07T07:55:35.473Z,11.40
2018-11-07T07:58:03.754Z,11.50
2018-11-07T08:00:32.006Z,12.60
2018-11-07T08:03:00.278Z,12.20
2018-11-07T08:05:29.241Z,13.20
2018-11-07T08:07:57.528Z,14.00
2018-11-07T08:10:25.814Z,14.20
2018-11-07T08:12:54.104Z,14.20
2018-11-07T08:15:22.364Z,14.50
2018-11-07T08:17:50.716Z,14.80
2018-11-07T08:20:19.396Z,14.40
2018-11-07T08:22:48.309Z,16.00
2018-11-07T08:25:16.575Z,15.10
2018-11-07T08:27:44.902Z,15.30
2018-11-07T08:30:15.016Z,14.70
2018-11-07T08:32:43.276Z,15.40
2018-11-07T08:35:12.594Z,15.00
2018-11-07T08:37:41.687Z,15.30
2018-11-07T08:40:13.354Z,15.60
2018-11-07T08:42:41.630Z,14.90
2018-11-07T08:45:10.899Z,15.70
2018-11-07T08:47:39.214Z,16.00
2018-11-07T08:50:09.531Z,15.90
2018-11-07T08:52:37.772Z,15.70
2018-11-07T08:55:07.520Z,16.30
2018-11-07T08:57:35.699Z,16.40
2018-11-07T09:00:05.469Z,16.30
2018-11-07T09:02:33.769Z,17.30
2018-11-07T09:05:02.224Z,16.90
2018-11-07T09:07:30.532Z,16.60
2018-11-07T09:09:58.797Z,17.20
2018-11-07T09:12:27.052Z,16.60
2018-11-07T09:14:55.550Z,16.40
2018-11-07T09:17:23.860Z,15.70
2018-11-07T09:19:52.111Z,14.40
2018-11-07T09:22:20.483Z,13.90
2018-11-07T09:24:48.762Z,13.40
2018-11-07T09:27:17.087Z,13.20
2018-11-07T09:29:45.324Z,13.30
2018-11-07T09:32:13.785Z,13.30
2018-11-07T09:34:42.106Z,13.20
2018-11-07T09:37:10.359Z,13.40
2018-11-07T09:39:38.666Z,13.50
2018-11-07T09:42:06.917Z,13.70
2018-11-07T09:44:35.239Z,13.70
2018-11-07T09:47:03.526Z,14.00
2018-11-07T09:49:31.780Z,14.00
2018-11-07T09:52:00.071Z,13.90
2018-11-07T09:54:28.365Z,13.90
2018-11-07T09:56:56.662Z,13.90
2018-11-07T09:59:24.951Z,14.30
2018-11-07T10:01:53.078Z,14.50
2018-11-07T10:04:21.344Z,14.90
2018-11-07T10:06:49.515Z,15.80
2018-11-07T10:09:17.770Z,16.60
2018-11-07T10:11:45.960Z,17.10
2018-11-07T10:14:14.167Z,17.50
2018-11-07T10:16:42.425Z,17.00
2018-11-07T10:19:10.646Z,17.80
2018-11-07T10:21:38.829Z,18.30
2018-11-07T10:24:07.024Z,18.00
2018-11-07T10:26:35.278Z,17.90
2018-11-07T10:29:03.687Z,18.20
2018-11-07T10:31:31.706Z,18.30
2018-11-07T10:33:59.981Z,18.20
2018-11-07T10:36:28.189Z,18.80
2018-11-07T10:38:56.462Z,20.00
2018-11-07T10:41:24.689Z,19.90
2018-11-07T10:43:52.929Z,19.50
2018-11-07T10:46:21.518Z,19.00
2018-11-07T10:48:49.743Z,19.50
2018-11-07T10:51:17.921Z,19.80
2018-11-07T10:53:46.252Z,20.30
2018-11-07T10:56:14.451Z,20.10
2018-11-07T10:58:42.657Z,21.00
2018-11-07T11:01:16.128Z,20.60
2018-11-07T11:03:44.543Z,20.20
2018-11-07T11:06:12.735Z,19.00
2018-11-07T11:08:40.957Z,20.20
2018-11-07T11:11:09.213Z,19.30
2018-11-07T11:13:37.941Z,19.70
2018-11-07T11:16:06.252Z,20.40
2018-11-07T11:18:34.459Z,20.30
2018-11-07T11:21:02.664Z,21.80
2018-11-07T11:23:30.854Z,19.70
2018-11-07T11:25:59.099Z,20.20
2018-11-07T11:28:27.351Z,20.50
2018-11-07T11:30:55.549Z,19.90
2018-11-07T11:33:23.825Z,20.20
2018-11-07T11:35:52.506Z,19.40
2018-11-07T11:38:20.919Z,19.20
2018-11-07T11:40:49.136Z,19.20
2018-11-07T11:43:17.339Z,18.70
2018-11-07T11:45:45.559Z,19.10
2018-11-07T11:48:13.785Z,20.00
2018-11-07T11:50:41.989Z,19.70
2018-11-07T11:53:10.249Z,19.40
2018-11-07T11:55:38.629Z,19.70
2018-11-07T11:58:06.913Z,19.10
2018-11-07T12:00:35.181Z,18.90
2018-11-07T12:03:03.474Z,19.20
2018-11-07T12:05:31.684Z,19.00
2018-11-07T12:07:59.992Z,18.70
2018-11-07T12:10:28.182Z,19.40
2018-11-07T12:12:57.402Z,19.10
2018-11-07T12:15:27.089Z,19.00
2018-11-07T12:17:55.559Z,19.00
2018-11-07T12:20:23.904Z,19.40
2018-11-07T12:22:52.113Z,19.70
2018-11-07T12:25:20.973Z,18.90
2018-11-07T12:27:49.319Z,18.80
2018-11-07T12:30:19.586Z,18.30
2018-11-07T12:32:48.990Z,18.60
2018-11-07T12:35:17.706Z,18.50
2018-11-07T12:37:45.945Z,17.50
2018-11-07T12:40:14.754Z,17.60
2018-11-07T12:42:43.019Z,17.30
2018-11-07T12:45:12.520Z,17.30
2018-11-07T12:47:41.092Z,16.90
2018-11-07T12:50:11.823Z,16.80
2018-11-07T12:52:39.810Z,16.80
2018-11-07T12:55:09.337Z,16.70
2018-11-07T12:57:37.828Z,16.60
2018-11-07T13:00:09.984Z,16.50
2018-11-07T13:02:38.273Z,16.30
2018-11-07T13:05:07.301Z,16.20
2018-11-07T13:07:35.526Z,16.20
2018-11-07T13:10:03.806Z,16.20
2018-11-07T13:12:32.186Z,16.10
2018-11-07T13:15:00.404Z,16.00
2018-11-07T13:17:28.601Z,16.00
2018-11-07T13:19:56.814Z,15.90
2018-11-07T13:22:25.110Z,16.00
2018-11-07T13:24:53.452Z,16.00
2018-11-07T13:27:21.645Z,16.10
2018-11-07T13:29:49.980Z,16.10
2018-11-07T13:32:18.260Z,16.00
2018-11-07T13:34:46.480Z,16.10
2018-11-07T13:37:14.902Z,16.20
2018-11-07T13:39:42.897Z,16.10
2018-11-07T13:42:11.473Z,16.10
2018-11-07T13:44:39.688Z,16.10
2018-11-07T13:47:07.870Z,16.10
2018-11-07T13:49:36.048Z,16.00
2018-11-07T13:52:04.426Z,16.00
2018-11-07T13:54:32.738Z,16.10
2018-11-07T13:57:00.917Z,16.10
2018-11-07T13:59:29.320Z,16.00
2018-11-07T14:01:57.408Z,15.80
2018-11-07T14:04:25.713Z,15.70
2018-11-07T14:06:53.954Z,15.70
2018-11-07T14:09:22.169Z,15.50
2018-11-07T14:11:50.365Z,15.50
2018-11-07T14:14:18.584Z,15.50
2018-11-07T14:16:47.253Z,15.40
2018-11-07T14:19:15.517Z,15.40
2018-11-07T14:21:43.688Z,15.40
2018-11-07T14:24:11.859Z,15.30
2018-11-07T14:26:40.209Z,15.20
2018-11-07T14:29:08.606Z,15.20
2018-11-07T14:31:36.896Z,15.20
2018-11-07T14:34:05.927Z,15.10
2018-11-07T14:36:34.108Z,15.00
2018-11-07T14:39:02.367Z,15.00
2018-11-07T14:41:30.613Z,15.10
2018-11-07T14:43:58.845Z,14.90
2018-11-07T14:46:27.100Z,15.00
2018-11-07T14:48:55.325Z,14.90
2018-11-07T14:51:23.596Z,14.80
2018-11-07T14:53:51.977Z,14.80
2018-11-07T14:56:20.149Z,14.90
2018-11-07T14:58:48.339Z,14.80
2018-11-07T15:01:16.543Z,14.80
2018-11-07T15:03:44.804Z,14.70
2018-11-07T15:06:13.098Z,14.70
2018-11-07T15:08:41.260Z,14.60
2018-11-07T15:11:09.550Z,14.50
2018-11-07T15:13:37.724Z,14.50
2018-11-07T15:16:06.013Z,14.50
2018-11-07T15:18:34.393Z,14.40
2018-11-07T15:21:02.620Z,14.40
2018-11-07T15:23:30.928Z,14.30
2018-11-07T15:25:59.153Z,14.40
2018-11-07T15:28:27.500Z,14.30
2018-11-07T15:30:55.800Z,14.20
2018-11-07T15:33:24.066Z,14.20
2018-11-07T15:35:52.404Z,14.20
2018-11-07T15:38:20.566Z,14.10
2018-11-07T15:40:48.790Z,13.90
2018-11-07T15:43:17.146Z,13.90
2018-11-07T15:45:45.407Z,13.90
2018-11-07T15:48:13.787Z,13.90
2018-11-07T15:51:20.501Z,13.90
2018-11-07T15:53:48.750Z,13.90
2018-11-07T15:56:17.020Z,14.00
2018-11-07T15:58:45.329Z,14.00
2018-11-07T16:01:13.958Z,13.90
2018-11-07T16:03:48.692Z,14.00
2018-11-07T16:06:18.085Z,13.90
2018-11-07T16:08:46.468Z,13.90
2018-11-07T16:11:14.802Z,13.90
2018-11-07T16:13:43.344Z,13.90
2018-11-07T16:16:11.541Z,13.80
2018-11-07T16:18:39.823Z,13.70
2018-11-07T16:21:08.248Z,13.70
2018-11-07T16:23:36.539Z,13.80
2018-11-07T16:26:04.953Z,13.70
2018-11-07T16:28:33.231Z,13.60
2018-11-07T16:31:01.511Z,13.60
2018-11-07T16:33:29.797Z,13.50
2018-11-07T16:35:58.074Z,13.40
2018-11-07T16:38:26.246Z,13.30
2018-11-07T16:40:54.539Z,13.20
2018-11-07T16:43:22.887Z,13.10
2018-11-07T16:45:51.065Z,13.10
2018-11-07T16:48:19.304Z,12.90
2018-11-07T16:50:47.520Z,12.90
2018-11-07T16:53:15.789Z,12.90
2018-11-07T16:55:44.032Z,12.90
2018-11-07T16:58:12.209Z,13.00
2018-11-07T17:00:40.455Z,12.90
2018-11-07T17:03:08.727Z,13.00
2018-11-07T17:05:36.937Z,12.80
2018-11-07T17:08:05.215Z,12.80
2018-11-07T17:10:33.373Z,12.90
2018-11-07T17:13:01.561Z,12.90
2018-11-07T17:15:29.813Z,12.80
2018-11-07T17:17:58.083Z,12.90
2018-11-07T17:20:26.309Z,12.90
2018-11-07T17:22:54.577Z,12.80
2018-11-07T17:25:22.908Z,12.80
2018-11-07T17:27:51.121Z,12.80
2018-11-07T17:30:19.393Z,12.80
2018-11-07T17:32:49.150Z,12.80
2018-11-07T17:35:18.323Z,12.70
2018-11-07T17:37:46.883Z,12.70
2018-11-07T17:40:19.152Z,12.70
2018-11-07T17:42:47.661Z,12.70
2018-11-07T17:45:17.320Z,12.70
2018-11-07T17:47:45.995Z,12.70
2018-11-07T17:50:15.362Z,12.70
2018-11-07T17:52:43.737Z,12.70
2018-11-07T17:55:13.301Z,12.70
2018-11-07T17:57:41.557Z,12.60
2018-11-07T18:00:15.226Z,12.50
2018-11-07T18:02:43.548Z,12.50
2018-11-07T18:05:11.733Z,12.60
2018-11-07T18:07:40.421Z,12.70
2018-11-07T18:10:11.149Z,12.60
2018-11-07T18:12:39.338Z,12.50
2018-11-07T18:15:08.413Z,12.60
2018-11-07T18:17:36.814Z,12.60
2018-11-07T18:20:06.550Z,12.60
2018-11-07T18:22:34.909Z,12.60
2018-11-07T18:25:03.175Z,12.60
2018-11-07T18:27:31.449Z,12.50
2018-11-07T18:30:01.868Z,12.40
2018-11-07T18:32:30.205Z,12.50
2018-11-07T18:34:58.467Z,12.40
2018-11-07T18:37:26.725Z,12.40
2018-11-07T18:39:54.934Z,12.30
2018-11-07T18:42:23.246Z,12.30
2018-11-07T18:44:51.554Z,12.40
2018-11-07T18:47:19.826Z,12.40
2018-11-07T18:49:48.341Z,12.50
2018-11-07T18:52:16.837Z,12.60
2018-11-07T18:54:45.183Z,12.60
2018-11-07T18:57:13.554Z,12.60
2018-11-07T18:59:42.824Z,12.60
2018-11-07T19:02:11.129Z,12.60
2018-11-07T19:04:39.438Z,12.60
2018-11-07T19:07:07.727Z,12.60
2018-11-07T19:09:36.024Z,12.50
2018-11-07T19:12:04.691Z,12.60
2018-11-07T19:14:33.039Z,12.60
2018-11-07T19:17:01.325Z,12.60
2018-11-07T19:19:29.610Z,12.60
2018-11-07T19:21:58.033Z,12.60
2018-11-07T19:24:26.290Z,12.60
2018-11-07T19:26:54.879Z,12.60
2018-11-07T19:29:23.358Z,12.70
2018-11-07T19:31:51.856Z,12.60
2018-11-07T19:34:20.320Z,12.60
2018-11-07T19:36:49.034Z,12.60
2018-11-07T19:39:17.809Z,12.50
2018-11-07T19:41:46.384Z,12.50
2018-11-07T19:44:14.911Z,12.50
2018-11-07T19:46:43.550Z,12.60
2018-11-07T19:49:11.932Z,12.60
2018-11-07T19:51:40.477Z,12.60
2018-11-07T19:54:09.336Z,12.60
2018-11-07T19:56:38.611Z,12.50
2018-11-07T19:59:06.850Z,12.60
2018-11-07T20:01:35.331Z,12.50
2018-11-07T20:04:04.014Z,12.40
2018-11-07T20:06:32.568Z,12.40
2018-11-07T20:09:01.329Z,12.40
2018-11-07T20:11:29.978Z,12.40
2018-11-07T20:13:58.544Z,12.50
2018-11-07T20:16:27.280Z,12.50
2018-11-07T20:18:56.084Z,12.50
2018-11-07T20:21:24.768Z,12.50
2018-11-07T20:23:53.126Z,12.60
2018-11-07T20:26:21.644Z,12.50
2018-11-07T20:28:50.527Z,12.50
2018-11-07T20:31:19.442Z,12.60
2018-11-07T20:33:48.016Z,12.60
2018-11-07T20:36:16.379Z,12.40
2018-11-07T20:38:44.911Z,12.40
2018-11-07T20:41:13.394Z,12.40
2018-11-07T20:43:42.221Z,12.30
2018-11-07T20:46:10.761Z,12.30
2018-11-07T20:48:39.072Z,12.20
2018-11-07T20:51:07.374Z,12.30
2018-11-07T20:53:35.624Z,12.30
2018-11-07T20:56:03.995Z,12.30
2018-11-07T20:58:32.529Z,12.30
2018-11-07T21:01:01.194Z,12.20
2018-11-07T21:03:29.668Z,12.20
2018-11-07T21:05:58.376Z,12.40
2018-11-07T21:08:26.777Z,12.30
2018-11-07T21:10:55.232Z,12.20
2018-11-07T21:13:23.581Z,12.20
2018-11-07T21:15:52.019Z,12.20
2018-11-07T21:18:20.489Z,12.20
2018-11-07T21:20:49.100Z,12.20
2018-11-07T21:23:17.329Z,12.20
2018-11-07T21:25:45.520Z,12.20
2018-11-07T21:28:14.183Z,12.20
2018-11-07T21:30:42.369Z,12.20
2018-11-07T21:33:10.590Z,12.30
2018-11-07T21:35:38.825Z,12.20
2018-11-07T21:38:07.029Z,12.20
2018-11-07T21:40:35.222Z,12.20
2018-11-07T21:43:03.551Z,12.20
2018-11-07T21:45:31.794Z,12.30
2018-11-07T21:47:59.989Z,12.30
2018-11-07T21:50:28.249Z,12.20
2018-11-07T21:52:56.464Z,12.20
2018-11-07T21:55:24.928Z,12.20
2018-11-07T21:57:53.169Z,12.20
2018-11-07T22:00:21.364Z,12.10
2018-11-07T22:02:49.615Z,12.10
2018-11-07T22:05:18.401Z,12.00
2018-11-07T22:07:46.669Z,12.10
2018-11-07T22:10:17.639Z,12.10
2018-11-07T22:12:45.901Z,12.10
2018-11-07T22:15:14.088Z,12.00
2018-11-07T22:17:42.251Z,12.00
2018-11-07T22:20:12.313Z,12.00
2018-11-07T22:22:40.496Z,12.00
2018-11-07T22:25:08.696Z,12.00
2018-11-07T22:27:36.975Z,12.10
2018-11-07T22:30:06.222Z,12.10
2018-11-07T22:32:34.403Z,12.00
2018-11-07T22:35:02.693Z,12.00
2018-11-07T22:37:30.961Z,12.00
2018-11-07T22:39:59.189Z,11.90
2018-11-07T22:42:27.387Z,11.80
2018-11-07T22:44:55.580Z,11.80
2018-11-07T22:47:23.835Z,11.80
2018-11-07T22:49:52.200Z,11.80
2018-11-07T22:52:20.425Z,11.70
2018-11-07T22:54:48.732Z,11.70
2018-11-07T22:57:16.937Z,11.60
2018-11-07T22:59:45.192Z,11.70
2018-11-07T23:02:13.386Z,11.70
2018-11-07T23:04:41.641Z,11.70
2018-11-07T23:07:09.870Z,11.60
2018-11-07T23:09:38.050Z,11.60
2018-11-07T23:12:06.487Z,11.60
2018-11-07T23:14:34.881Z,11.60
2018-11-07T23:17:03.121Z,11.70
2018-11-07T23:19:31.551Z,11.70
2018-11-07T23:21:59.629Z,11.60
2018-11-07T23:24:28.148Z,11.70
2018-11-07T23:26:56.461Z,11.70
2018-11-07T23:29:24.697Z,11.80
2018-11-07T23:31:52.892Z,11.80
2018-11-07T23:34:21.137Z,11.90
2018-11-07T23:36:49.368Z,11.90
2018-11-07T23:39:17.595Z,11.80
2018-11-07T23:41:45.816Z,11.80
2018-11-07T23:44:14.008Z,11.70
2018-11-07T23:46:42.177Z,11.70
2018-11-07T23:49:10.437Z,11.60
2018-11-07T23:51:43.697Z,11.50
2018-11-07T23:54:11.909Z,11.40
2018-11-07T23:56:40.107Z,11.40
2018-11-07T23:59:08.314Z,11.40
